QLK2326 YBBN-YBUD
Flight info
| Callsign | QLK2326 |
|---|---|
| Flight time | N/A |
| Altitude | 20000 |
| Route | BIXAD Q67 GUDSO Q295 SOSTU |
| Aircraft | DH8D/M-SDE2E3FGRY/H |
Departure
| Time | 2026-04-30 15:01 |
|---|---|
| Airport | Brisbane International Airport (YBBN) |
Arrival
| Time | N/A |
|---|---|
| Airport | Bundaberg Airport (YBUD) |
| Time | Latitude | Longitude | Altitude | Speed | Heading |
|---|---|---|---|---|---|
| 2026-04-30 14:31 | -27.38142 | 153.12260 | 22 ft | 0 kts | 339° |
| 2026-04-30 14:50 | -27.38141 | 153.12260 | 22 ft | 0 kts | 339° |
| 2026-04-30 14:51 | -27.38169 | 153.12259 | 22 ft | 2 kts | 26° |
| 2026-04-30 14:51 | -27.38181 | 153.12250 | 22 ft | 2 kts | 50° |
| 2026-04-30 14:51 | -27.38190 | 153.12218 | 22 ft | 2 kts | 98° |
| 2026-04-30 14:52 | -27.38188 | 153.12209 | 22 ft | 0 kts | 109° |
| 2026-04-30 14:56 | -27.38216 | 153.12332 | 22 ft | 10 kts | 114° |
| 2026-04-30 14:57 | -27.38247 | 153.12402 | 22 ft | 11 kts | 117° |
| 2026-04-30 14:57 | -27.38314 | 153.12547 | 22 ft | 8 kts | 123° |
| 2026-04-30 14:58 | -27.38369 | 153.12682 | 22 ft | 17 kts | 43° |
| 2026-04-30 14:58 | -27.38218 | 153.12775 | 22 ft | 30 kts | 27° |
| 2026-04-30 14:58 | -27.38043 | 153.12877 | 22 ft | 1 kts | 38° |
| 2026-04-30 14:59 | -27.38042 | 153.12927 | 22 ft | 11 kts | 117° |
| 2026-04-30 15:00 | -27.38353 | 153.12926 | 23 ft | 79 kts | 206° |
| 2026-04-30 15:00 | -27.39996 | 153.11946 | 445 ft | 158 kts | 207° |
| 2026-04-30 15:01 | -27.41991 | 153.10695 | 1788 ft | 170 kts | 204° |
| 2026-04-30 15:01 | -27.43021 | 153.10057 | 2431 ft | 172 kts | 201° |
| 2026-04-30 15:01 | -27.45349 | 153.08696 | 3256 ft | 206 kts | 200° |
| 2026-04-30 15:02 | -27.46706 | 153.07927 | 3550 ft | 224 kts | 201° |
| 2026-04-30 15:02 | -27.48062 | 153.07002 | 4064 ft | 235 kts | 218° |
| 2026-04-30 15:03 | -27.48673 | 153.01442 | 5895 ft | 251 kts | 275° |
| 2026-04-30 15:03 | -27.48266 | 152.97504 | 7076 ft | 255 kts | 276° |
| 2026-04-30 15:04 | -27.47797 | 152.93533 | 8216 ft | 260 kts | 280° |
| 2026-04-30 15:04 | -27.43971 | 152.90277 | 9830 ft | 244 kts | 359° |
| 2026-04-30 15:05 | -27.39830 | 152.92531 | 11261 ft | 237 kts | 56° |
| 2026-04-30 15:06 | -27.37973 | 152.95641 | 12243 ft | 242 kts | 58° |
| 2026-04-30 15:06 | -27.36063 | 152.98828 | 13140 ft | 248 kts | 57° |
| 2026-04-30 15:07 | -27.34075 | 153.02068 | 13996 ft | 253 kts | 57° |
| 2026-04-30 15:07 | -27.32036 | 153.05342 | 14836 ft | 257 kts | 56° |
| 2026-04-30 15:08 | -27.29948 | 153.08696 | 15571 ft | 263 kts | 56° |
| 2026-04-30 15:08 | -27.25151 | 153.11644 | 16531 ft | 274 kts | 17° |
| 2026-04-30 15:09 | -27.21417 | 153.12698 | 17238 ft | 277 kts | 14° |
| 2026-04-30 15:09 | -27.17612 | 153.13609 | 17885 ft | 282 kts | 12° |
| 2026-04-30 15:10 | -27.13740 | 153.14510 | 18534 ft | 285 kts | 12° |
| 2026-04-30 15:11 | -27.05866 | 153.16316 | 19698 ft | 291 kts | 11° |
| 2026-04-30 15:11 | -27.01870 | 153.17227 | 20169 ft | 295 kts | 11° |
| 2026-04-30 15:12 | -26.95532 | 153.18669 | 20256 ft | 321 kts | 11° |
| 2026-04-30 15:13 | -26.91077 | 153.19679 | 20259 ft | 334 kts | 11° |
| 2026-04-30 15:14 | -26.81715 | 153.21802 | 20247 ft | 349 kts | 11° |
| 2026-04-30 15:14 | -26.74502 | 153.23434 | 20248 ft | 354 kts | 11° |
| 2026-04-30 15:16 | -26.62565 | 153.22415 | 20246 ft | 350 kts | 341° |
| 2026-04-30 15:17 | -26.53232 | 153.19170 | 20249 ft | 352 kts | 341° |
| 2026-04-30 15:18 | -26.41514 | 153.15117 | 20241 ft | 353 kts | 341° |
| 2026-04-30 15:19 | -26.34464 | 153.12686 | 20240 ft | 353 kts | 341° |